createdAt,value
2014-10-15T00:00:22.111Z,15.6
2014-10-15T00:01:26.800Z,15.64
2014-10-15T00:02:31.505Z,15.48
2014-10-15T00:03:36.492Z,15.55
2014-10-15T00:04:41.182Z,15.72
2014-10-15T00:05:45.886Z,15.67
2014-10-15T00:06:50.576Z,15.71
2014-10-15T00:07:55.281Z,15.56
2014-10-15T00:08:59.970Z,15.62
2014-10-15T00:10:04.519Z,15.51
2014-10-15T00:11:09.210Z,15.61
2014-10-15T00:12:13.915Z,15.65
2014-10-15T00:13:18.603Z,15.61
2014-10-15T00:14:22.622Z,15.65
2014-10-15T00:15:27.608Z,15.7
2014-10-15T00:16:32.298Z,16.02
2014-10-15T00:17:37.284Z,15.96
2014-10-15T00:18:41.989Z,15.84
2014-10-15T00:19:46.679Z,15.71
2014-10-15T00:20:51.665Z,15.67
2014-10-15T00:21:56.370Z,15.63
2014-10-15T00:23:01.061Z,15.67
2014-10-15T00:24:06.062Z,15.56
2014-10-15T00:25:10.751Z,15.56
2014-10-15T00:26:15.442Z,15.6
2014-10-15T00:27:20.146Z,15.52
2014-10-15T00:28:24.852Z,15.58
2014-10-15T00:29:29.556Z,15.64
2014-10-15T00:30:33.558Z,15.61
2014-10-15T00:31:38.249Z,15.56
2014-10-15T00:32:42.954Z,15.59
2014-10-15T00:33:47.643Z,15.69
2014-10-15T00:34:52.333Z,15.79
2014-10-15T00:35:57.335Z,15.68
2014-10-15T00:37:02.321Z,15.82
2014-10-15T00:38:07.011Z,15.8
2014-10-15T00:39:11.014Z,15.86
2014-10-15T00:40:16.000Z,15.92
2014-10-15T00:41:20.705Z,15.9
2014-10-15T00:42:25.692Z,15.79
2014-10-15T00:43:30.381Z,15.83
2014-10-15T00:44:35.085Z,15.74
2014-10-15T00:45:39.776Z,15.72
2014-10-15T00:46:44.465Z,15.71
2014-10-15T00:47:49.170Z,15.76
2014-10-15T00:48:53.860Z,15.75
2014-10-15T00:49:58.565Z,15.77
2014-10-15T00:51:03.551Z,15.76
2014-10-15T00:52:08.256Z,15.69
2014-10-15T00:53:13.244Z,15.72
2014-10-15T00:54:18.229Z,15.57
2014-10-15T00:55:22.934Z,15.64
2014-10-15T00:56:27.922Z,15.56
2014-10-15T00:57:32.908Z,15.37
2014-10-15T00:58:37.894Z,15.44
2014-10-15T00:59:42.600Z,15.48
2014-10-15T01:00:47.289Z,15.47
2014-10-15T01:01:51.994Z,15.62
2014-10-15T01:02:56.684Z,15.67
2014-10-15T01:04:01.373Z,15.74
2014-10-15T01:05:06.078Z,15.62
2014-10-15T01:06:10.080Z,15.46
2014-10-15T01:07:14.786Z,15.53
2014-10-15T01:08:19.476Z,15.63
2014-10-15T01:09:24.180Z,15.58
2014-10-15T01:10:28.870Z,15.64
2014-10-15T01:11:33.560Z,15.68
2014-10-15T01:12:38.265Z,15.66
2014-10-15T01:13:42.955Z,15.59
2014-10-15T01:14:47.643Z,15.56
2014-10-15T01:15:52.349Z,15.69
2014-10-15T01:16:57.039Z,15.76
2014-10-15T01:18:01.760Z,15.71
2014-10-15T01:19:06.762Z,15.72
2014-10-15T01:20:11.452Z,15.56
2014-10-15T01:21:16.141Z,15.63
2014-10-15T01:22:20.846Z,15.67
2014-10-15T01:23:25.833Z,15.69
2014-10-15T01:24:30.522Z,15.7
2014-10-15T01:25:35.228Z,15.55
2014-10-15T01:26:39.916Z,15.51
2014-10-15T01:27:44.607Z,15.6
2014-10-15T01:28:49.311Z,15.46
2014-10-15T01:29:54.001Z,15.62
2014-10-15T01:30:58.691Z,15.57
2014-10-15T01:32:03.427Z,15.7
2014-10-15T01:33:08.117Z,15.69
2014-10-15T01:34:12.822Z,15.53
2014-10-15T01:35:17.808Z,15.58
2014-10-15T01:36:21.810Z,15.47
2014-10-15T01:37:26.500Z,15.58
2014-10-15T01:38:31.205Z,15.56
2014-10-15T01:39:36.191Z,15.51
2014-10-15T01:40:40.882Z,15.67
2014-10-15T01:41:45.586Z,16.04
2014-10-15T01:42:50.292Z,16.22
2014-10-15T01:43:54.981Z,16.1
2014-10-15T01:44:59.687Z,16.01
2014-10-15T01:46:04.392Z,16
2014-10-15T01:47:09.081Z,16.26
2014-10-15T01:48:13.786Z,16.3
2014-10-15T01:49:18.476Z,16.21
2014-10-15T01:50:23.478Z,15.8
2014-10-15T01:51:28.167Z,15.82
2014-10-15T01:52:32.872Z,15.78
2014-10-15T01:53:37.563Z,15.79
2014-10-15T01:54:42.267Z,15.7
2014-10-15T01:55:47.019Z,15.86
2014-10-15T01:56:51.710Z,15.76
2014-10-15T01:57:56.415Z,15.64
2014-10-15T01:59:01.103Z,15.62
2014-10-15T02:00:05.808Z,15.52
2014-10-15T02:01:10.514Z,15.46
2014-10-15T02:02:15.220Z,15.6
2014-10-15T02:03:20.206Z,15.53
2014-10-15T02:04:25.208Z,15.42
2014-10-15T02:05:29.913Z,15.38
2014-10-15T02:06:34.603Z,15.44
2014-10-15T02:07:39.323Z,15.44
2014-10-15T02:08:44.029Z,15.21
2014-10-15T02:09:48.735Z,15.22
2014-10-15T02:10:53.424Z,15.02
2014-10-15T02:11:58.128Z,15.26
2014-10-15T02:13:02.834Z,15.19
2014-10-15T02:14:07.539Z,14.94
2014-10-15T02:15:12.245Z,15.16
2014-10-15T02:16:16.934Z,15.16
2014-10-15T02:17:21.936Z,15.12
2014-10-15T02:18:26.641Z,14.73
2014-10-15T02:19:31.628Z,15.12
2014-10-15T02:20:36.333Z,15.56
2014-10-15T02:21:41.336Z,15.38
2014-10-15T02:22:46.322Z,15.3
2014-10-15T02:23:51.026Z,15.42
2014-10-15T02:24:55.732Z,15.58
2014-10-15T02:26:00.437Z,16.08
2014-10-15T02:27:05.127Z,16.12
2014-10-15T02:28:09.832Z,15.97
2014-10-15T02:29:14.536Z,16.08
2014-10-15T02:30:19.258Z,16.11
2014-10-15T02:31:23.947Z,16.19
2014-10-15T02:32:28.653Z,16.29
2014-10-15T02:33:33.358Z,16.49
2014-10-15T02:34:38.047Z,16.6
2014-10-15T02:35:42.752Z,16.5
2014-10-15T02:36:47.457Z,16.5
2014-10-15T02:37:52.445Z,16.78
2014-10-15T02:38:57.150Z,16.54
2014-10-15T02:40:01.871Z,16.45
2014-10-15T02:41:06.559Z,16.55
2014-10-15T02:42:11.547Z,16.5
2014-10-15T02:43:16.236Z,16.14
2014-10-15T02:44:20.940Z,16.3
2014-10-15T02:45:25.631Z,15.94
2014-10-15T02:46:30.633Z,15.88
2014-10-15T02:47:35.322Z,16.02
2014-10-15T02:48:40.027Z,15.91
2014-10-15T02:49:44.717Z,16.16
2014-10-15T02:50:49.703Z,16.09
2014-10-15T02:51:54.408Z,16.09
2014-10-15T02:52:59.114Z,16.06
2014-10-15T02:54:04.101Z,16.04
2014-10-15T02:55:09.086Z,15.93
2014-10-15T02:56:13.777Z,15.98
2014-10-15T02:57:18.497Z,15.77
2014-10-15T02:58:23.187Z,15.7
2014-10-15T02:59:27.892Z,15.62
2014-10-15T03:00:32.596Z,15.64
2014-10-15T03:01:37.287Z,15.77
2014-10-15T03:02:41.992Z,15.94
2014-10-15T03:03:46.681Z,15.93
2014-10-15T03:04:50.683Z,15.71
2014-10-15T03:05:55.388Z,15.78
2014-10-15T03:07:00.079Z,15.74
2014-10-15T03:08:04.767Z,15.59
2014-10-15T03:09:09.474Z,15.67
2014-10-15T03:10:14.163Z,15.54
2014-10-15T03:11:19.148Z,15.34
2014-10-15T03:12:23.855Z,15.34
2014-10-15T03:13:28.841Z,15.42
2014-10-15T03:14:33.530Z,15.59
2014-10-15T03:15:38.236Z,15.58
2014-10-15T03:16:42.925Z,15.44
2014-10-15T03:17:47.630Z,15.58
2014-10-15T03:18:52.320Z,15.5
2014-10-15T03:19:57.307Z,15.56
2014-10-15T03:21:02.292Z,15.64
2014-10-15T03:22:06.983Z,15.78
2014-10-15T03:23:11.282Z,15.84
2014-10-15T03:24:15.987Z,15.84
2014-10-15T03:25:20.675Z,15.8
2014-10-15T03:26:25.382Z,15.78
2014-10-15T03:27:30.071Z,15.74
2014-10-15T03:28:35.056Z,15.66
2014-10-15T03:29:40.044Z,15.81
2014-10-15T03:30:44.749Z,15.54
2014-10-15T03:31:49.454Z,15.61
2014-10-15T03:32:54.144Z,15.69
2014-10-15T03:33:58.849Z,15.55
2014-10-15T03:35:03.538Z,15.54
2014-10-15T03:36:08.243Z,15.44
2014-10-15T03:37:12.933Z,15.54
2014-10-15T03:38:17.638Z,15.58
2014-10-15T03:39:22.327Z,15.47
2014-10-15T03:40:27.034Z,15.5
2014-10-15T03:41:32.020Z,15.56
2014-10-15T03:42:36.708Z,15.36
2014-10-15T03:43:41.696Z,15.42
2014-10-15T03:44:46.400Z,15.34
2014-10-15T03:45:51.090Z,15.47
2014-10-15T03:46:55.796Z,15.61
2014-10-15T03:48:00.485Z,15.53
2014-10-15T03:49:05.190Z,15.32
2014-10-15T03:50:09.880Z,15.74
2014-10-15T03:51:14.647Z,15.78
2014-10-15T03:52:19.385Z,15.8
2014-10-15T03:53:24.073Z,15.68
2014-10-15T03:54:28.763Z,15.54
2014-10-15T03:55:33.469Z,15.6
2014-10-15T03:56:38.157Z,15.46
2014-10-15T03:57:42.862Z,15.59
2014-10-15T03:58:47.881Z,15.48
2014-10-15T03:59:52.586Z,15.45
2014-10-15T04:00:57.276Z,15.42
2014-10-15T04:02:01.980Z,15.48
2014-10-15T04:03:06.670Z,15.62
2014-10-15T04:04:10.672Z,15.56
2014-10-15T04:05:15.377Z,15.62
2014-10-15T04:06:19.379Z,15.7
2014-10-15T04:07:24.070Z,15.45
2014-10-15T04:08:28.775Z,15.47
2014-10-15T04:09:33.464Z,15.54
2014-10-15T04:10:38.170Z,15.38
2014-10-15T04:11:42.858Z,15.39
2014-10-15T04:12:47.549Z,15.4
2014-10-15T04:13:52.253Z,15.25
2014-10-15T04:14:56.942Z,15.23
2014-10-15T04:16:01.648Z,15.2
2014-10-15T04:17:06.338Z,15.03
2014-10-15T04:18:11.324Z,14.99
2014-10-15T04:19:16.014Z,14.96
2014-10-15T04:20:20.719Z,15.2
2014-10-15T04:21:25.408Z,15.41
2014-10-15T04:22:30.115Z,15.36
2014-10-15T04:23:34.804Z,15.26
2014-10-15T04:24:39.525Z,15.1
2014-10-15T04:25:44.230Z,15.16
2014-10-15T04:26:48.248Z,15.13
2014-10-15T04:27:52.937Z,15.26
2014-10-15T04:28:57.938Z,15.43
2014-10-15T04:30:02.925Z,15.64
2014-10-15T04:31:07.631Z,15.4
2014-10-15T04:32:11.633Z,15.15
2014-10-15T04:33:16.338Z,15.14
2014-10-15T04:34:21.324Z,15.09
2014-10-15T04:35:26.310Z,15.02
2014-10-15T04:36:31.016Z,15.06
2014-10-15T04:37:35.706Z,15.31
2014-10-15T04:38:40.691Z,15.51
2014-10-15T04:39:45.694Z,15.56
2014-10-15T04:40:50.400Z,15.66
2014-10-15T04:41:55.105Z,15.66
2014-10-15T04:42:59.793Z,15.53
2014-10-15T04:44:04.498Z,15.52
2014-10-15T04:45:09.204Z,15.31
2014-10-15T04:46:14.206Z,15.15
2014-10-15T04:47:18.912Z,15.26
2014-10-15T04:48:23.601Z,15.56
2014-10-15T04:49:28.619Z,15.68
2014-10-15T04:50:33.606Z,15.87
2014-10-15T04:51:38.310Z,15.92
2014-10-15T04:52:43.032Z,15.77
2014-10-15T04:53:47.345Z,15.92
2014-10-15T04:54:52.333Z,16.02
2014-10-15T04:55:57.037Z,15.64
2014-10-15T04:57:01.743Z,15.4
2014-10-15T04:58:06.448Z,15.67
2014-10-15T04:59:11.153Z,15.8
2014-10-15T05:00:15.843Z,16.04
2014-10-15T05:01:20.548Z,16.04
2014-10-15T05:02:25.253Z,16
2014-10-15T05:03:29.943Z,16.07
2014-10-15T05:04:34.648Z,16.1
2014-10-15T05:05:39.353Z,16.34
2014-10-15T05:06:44.042Z,16.55
2014-10-15T05:07:48.747Z,16.06
2014-10-15T05:08:53.454Z,16.04
2014-10-15T05:09:58.143Z,15.68
2014-10-15T05:11:02.847Z,15.49
2014-10-15T05:12:07.865Z,15.34
2014-10-15T05:13:12.554Z,15.44
2014-10-15T05:14:17.259Z,15.88
2014-10-15T05:15:21.966Z,15.86
2014-10-15T05:16:26.671Z,15.58
2014-10-15T05:17:31.375Z,15.34
2014-10-15T05:18:36.065Z,15.29
2014-10-15T05:19:41.067Z,15.27
2014-10-15T05:20:46.054Z,15.14
2014-10-15T05:21:50.759Z,15.14
2014-10-15T05:22:55.480Z,15.1
2014-10-15T05:24:00.227Z,15
2014-10-15T05:25:04.990Z,14.88
2014-10-15T05:26:09.721Z,14.88
2014-10-15T05:27:14.447Z,14.92
2014-10-15T05:28:19.450Z,14.82
2014-10-15T05:29:24.170Z,14.74
2014-10-15T05:30:28.873Z,14.6
2014-10-15T05:31:33.579Z,14.57
2014-10-15T05:32:38.575Z,14.7
2014-10-15T05:33:43.270Z,14.7
2014-10-15T05:34:47.981Z,15.1
2014-10-15T05:35:52.675Z,15.3
2014-10-15T05:36:57.371Z,15.41
2014-10-15T05:38:02.375Z,15.37
2014-10-15T05:39:07.066Z,15.22
2014-10-15T05:40:12.055Z,15.23
2014-10-15T05:41:16.763Z,15.42
2014-10-15T05:42:21.453Z,15.29
2014-10-15T05:43:26.441Z,15.64
2014-10-15T05:44:31.132Z,15.74
2014-10-15T05:45:35.837Z,15.4
2014-10-15T05:46:40.825Z,15.01
2014-10-15T05:47:45.812Z,14.64
2014-10-15T05:48:50.501Z,14.67
2014-10-15T05:49:55.208Z,14.71
2014-10-15T05:50:59.898Z,14.76
2014-10-15T05:52:04.588Z,14.56
2014-10-15T05:53:09.293Z,14.62
2014-10-15T05:54:13.997Z,14.69
2014-10-15T05:55:18.687Z,14.64
2014-10-15T05:56:23.392Z,14.7
2014-10-15T05:57:28.394Z,14.72
2014-10-15T05:58:33.100Z,14.7
2014-10-15T05:59:37.805Z,15.08
2014-10-15T06:00:42.510Z,15.5
2014-10-15T06:01:47.199Z,15.6
2014-10-15T06:02:52.186Z,15.5
2014-10-15T06:03:57.173Z,15.22
2014-10-15T06:05:02.158Z,15.16
2014-10-15T06:06:06.865Z,15.03
2014-10-15T06:07:11.570Z,15.08
2014-10-15T06:08:16.258Z,14.96
2014-10-15T06:09:20.949Z,15.02
2014-10-15T06:10:25.637Z,15.13
2014-10-15T06:11:30.640Z,14.88
2014-10-15T06:12:35.330Z,14.94
2014-10-15T06:13:40.019Z,14.94
2014-10-15T06:14:44.709Z,14.97
2014-10-15T06:15:49.414Z,14.92
2014-10-15T06:16:54.103Z,14.89
2014-10-15T06:17:58.794Z,15
2014-10-15T06:19:03.515Z,14.99
2014-10-15T06:20:08.204Z,15.09
2014-10-15T06:21:13.189Z,14.97
2014-10-15T06:22:18.177Z,15.06
2014-10-15T06:23:22.881Z,15.15
2014-10-15T06:24:27.867Z,15.14
2014-10-15T06:25:32.558Z,15.32
2014-10-15T06:26:37.544Z,15.3
2014-10-15T06:27:42.249Z,15.18
2014-10-15T06:28:46.939Z,15.27
2014-10-15T06:29:51.925Z,15.22
2014-10-15T06:30:56.630Z,15.27
2014-10-15T06:32:01.618Z,15.4
2014-10-15T06:33:05.619Z,15.38
2014-10-15T06:34:10.308Z,15.52
2014-10-15T06:35:14.999Z,15.62
2014-10-15T06:36:19.703Z,15.74
2014-10-15T06:37:24.392Z,15.71
2014-10-15T06:38:29.098Z,15.75
2014-10-15T06:39:33.788Z,15.66
2014-10-15T06:40:38.477Z,15.74
2014-10-15T06:41:43.479Z,15.97
2014-10-15T06:42:48.169Z,16.7
2014-10-15T06:43:52.874Z,16.84
2014-10-15T06:44:57.579Z,17.1
2014-10-15T06:46:02.269Z,18.64
2014-10-15T06:47:07.271Z,18.35
2014-10-15T06:48:11.960Z,17.62
2014-10-15T06:49:16.962Z,17.18
2014-10-15T06:50:21.653Z,16.86
2014-10-15T06:51:26.357Z,16.57
2014-10-15T06:52:31.046Z,16.4
2014-10-15T06:53:35.752Z,16.36
2014-10-15T06:54:40.458Z,16.63
2014-10-15T06:55:45.444Z,16.7
2014-10-15T06:56:50.133Z,18.52
2014-10-15T06:57:54.839Z,19.19
2014-10-15T06:58:59.529Z,19.36
2014-10-15T07:00:04.233Z,19.78
2014-10-15T07:01:08.938Z,18.96
2014-10-15T07:02:13.643Z,18.38
2014-10-15T07:03:18.349Z,18.31
2014-10-15T07:04:23.055Z,18.38
2014-10-15T07:05:27.743Z,18.34
2014-10-15T07:06:32.448Z,18.25
2014-10-15T07:07:37.153Z,18.1
2014-10-15T07:08:41.860Z,18.24
2014-10-15T07:09:46.565Z,18.45
2014-10-15T07:10:51.269Z,18.32
2014-10-15T07:11:55.959Z,18.01
2014-10-15T07:13:00.664Z,18.04
2014-10-15T07:14:05.666Z,17.96
2014-10-15T07:15:10.372Z,17.68
2014-10-15T07:16:15.078Z,17.67
2014-10-15T07:17:20.064Z,17.43
2014-10-15T07:18:24.768Z,17.35
2014-10-15T07:19:29.473Z,17.23
2014-10-15T07:20:34.178Z,17.4
2014-10-15T07:21:38.885Z,17.15
2014-10-15T07:22:42.887Z,16.79
2014-10-15T07:23:47.592Z,16.95
2014-10-15T07:24:52.297Z,17.04
2014-10-15T07:25:57.002Z,17.04
2014-10-15T07:27:01.707Z,17
2014-10-15T07:28:06.397Z,17.08
2014-10-15T07:29:11.102Z,16.72
2014-10-15T07:30:15.791Z,16.6
2014-10-15T07:31:20.481Z,16.44
2014-10-15T07:32:25.468Z,16.58
2014-10-15T07:33:30.172Z,16.26
2014-10-15T07:34:34.862Z,16.72
2014-10-15T07:35:39.551Z,16.84
2014-10-15T07:36:44.272Z,17.24
2014-10-15T07:37:48.961Z,17.44
2014-10-15T07:38:53.668Z,17.31
2014-10-15T07:39:58.653Z,17.45
2014-10-15T07:41:03.343Z,17.75
2014-10-15T07:42:08.049Z,17.76
2014-10-15T07:43:13.035Z,17.72
2014-10-15T07:44:17.724Z,17.43
2014-10-15T07:45:22.430Z,17.76
2014-10-15T07:46:27.120Z,17.12
2014-10-15T07:47:32.121Z,16.73
2014-10-15T07:48:36.826Z,16.66
2014-10-15T07:49:41.516Z,16.8
2014-10-15T07:50:46.222Z,17.2
2014-10-15T07:51:50.943Z,17.55
2014-10-15T07:52:55.632Z,17.62
2014-10-15T07:54:00.337Z,17.74
2014-10-15T07:55:05.027Z,17.88
2014-10-15T07:56:09.732Z,17.96
2014-10-15T07:57:14.421Z,18
2014-10-15T07:58:19.126Z,18.16
2014-10-15T07:59:23.816Z,17.66
2014-10-15T08:00:28.521Z,17.86
2014-10-15T08:01:33.211Z,17.93
2014-10-15T08:02:37.916Z,17.74
2014-10-15T08:03:42.605Z,17.86
2014-10-15T08:04:47.343Z,18.06
2014-10-15T08:05:52.032Z,17.95
2014-10-15T08:06:56.736Z,17.94
2014-10-15T08:08:01.427Z,17.67
2014-10-15T08:09:06.131Z,17.58
2014-10-15T08:10:10.820Z,17.59
2014-10-15T08:11:15.526Z,17.4
2014-10-15T08:12:20.232Z,17.65
2014-10-15T08:13:24.921Z,17.67
2014-10-15T08:14:29.626Z,17.92
2014-10-15T08:15:34.316Z,17.8
2014-10-15T08:16:39.021Z,18
2014-10-15T08:17:43.710Z,18.08
2014-10-15T08:18:48.712Z,18.27
2014-10-15T08:19:53.403Z,18.57
2014-10-15T08:20:58.108Z,18.73
2014-10-15T08:22:02.796Z,18.52
2014-10-15T08:23:07.503Z,18.56
2014-10-15T08:24:12.208Z,18.45
2014-10-15T08:25:16.896Z,18.32
2014-10-15T08:26:21.587Z,18.58
2014-10-15T08:27:26.292Z,18.46
2014-10-15T08:28:30.981Z,18.7
2014-10-15T08:29:35.686Z,19.09
2014-10-15T08:30:40.673Z,18.94
2014-10-15T08:31:45.659Z,18.66
2014-10-15T08:32:50.364Z,18.44
2014-10-15T08:33:55.351Z,18.88
2014-10-15T08:35:00.057Z,19.08
2014-10-15T08:36:04.762Z,18.96
2014-10-15T08:37:09.466Z,19.06
2014-10-15T08:38:14.171Z,19.07
2014-10-15T08:39:18.877Z,18.88
2014-10-15T08:40:23.567Z,19
2014-10-15T08:41:28.272Z,18.74
2014-10-15T08:42:32.977Z,18.7
2014-10-15T08:43:37.963Z,18.98
2014-10-15T08:44:42.669Z,18.81
2014-10-15T08:45:47.359Z,18.9
2014-10-15T08:46:52.063Z,19.41
2014-10-15T08:47:56.753Z,19.5
2014-10-15T08:49:01.458Z,19.04
2014-10-15T08:50:06.163Z,19.25
2014-10-15T08:51:11.149Z,19.37
2014-10-15T08:52:15.855Z,19.94
2014-10-15T08:53:20.842Z,19.92
2014-10-15T08:54:25.593Z,20.27
2014-10-15T08:55:30.298Z,20.18
2014-10-15T08:56:35.004Z,20.44
2014-10-15T08:57:39.709Z,20.1
2014-10-15T08:58:44.477Z,19.6
2014-10-15T08:59:49.182Z,19.65
2014-10-15T09:00:53.888Z,19.92
2014-10-15T09:01:58.639Z,19.91
2014-10-15T09:03:03.344Z,19.59
2014-10-15T09:04:08.049Z,19.28
2014-10-15T09:05:12.755Z,19.44
2014-10-15T09:06:17.491Z,19.56
2014-10-15T09:07:22.196Z,19.8
2014-10-15T09:08:26.901Z,19.87
2014-10-15T09:09:31.606Z,19.75
2014-10-15T09:10:36.311Z,19.76
2014-10-15T09:11:41.017Z,19.59
2014-10-15T09:12:45.723Z,19.61
2014-10-15T09:13:50.443Z,19.67
2014-10-15T09:14:55.148Z,19.7
2014-10-15T09:15:59.854Z,19.9
2014-10-15T09:17:04.559Z,19.68
2014-10-15T09:18:09.264Z,19.72
2014-10-15T09:19:13.986Z,19.86
2014-10-15T09:20:18.691Z,19.89
2014-10-15T09:21:23.395Z,19.69
2014-10-15T09:22:28.100Z,19.87
2014-10-15T09:23:32.805Z,19.92
2014-10-15T09:24:37.527Z,20.05
2014-10-15T09:25:42.231Z,20.19
2014-10-15T09:26:46.937Z,20.27
2014-10-15T09:27:51.627Z,20.22
2014-10-15T09:28:56.332Z,20.58
2014-10-15T09:30:01.037Z,20.27
2014-10-15T09:31:05.742Z,20.36
2014-10-15T09:32:10.478Z,20.34
2014-10-15T09:33:15.183Z,20.79
2014-10-15T09:34:19.874Z,20.56
2014-10-15T09:35:24.578Z,20.32
2014-10-15T09:36:29.564Z,20.22
2014-10-15T09:37:34.255Z,19.84
2014-10-15T09:38:39.537Z,19.73
2014-10-15T09:39:44.242Z,19.75
2014-10-15T09:40:48.948Z,19.7
2014-10-15T09:41:53.638Z,19.44
2014-10-15T09:42:58.327Z,19.62
2014-10-15T09:44:03.033Z,19.7
2014-10-15T09:45:07.722Z,19.76
2014-10-15T09:46:12.427Z,19.66
2014-10-15T09:47:17.117Z,19.82
2014-10-15T09:48:21.822Z,19.73
2014-10-15T09:49:26.511Z,19.77
2014-10-15T09:50:31.216Z,19.89
2014-10-15T09:51:35.907Z,19.7
2014-10-15T09:52:40.909Z,19.7
2014-10-15T09:53:45.614Z,19.89
2014-10-15T09:54:50.319Z,19.79
2014-10-15T09:55:55.306Z,19.84
2014-10-15T09:57:00.151Z,19.99
2014-10-15T09:58:04.856Z,20.18
2014-10-15T09:59:09.546Z,20.4
2014-10-15T10:00:14.532Z,20.17
2014-10-15T10:01:19.253Z,20.02
2014-10-15T10:02:24.256Z,19.99
2014-10-15T10:03:28.960Z,19.82
2014-10-15T10:04:33.947Z,20.09
2014-10-15T10:05:38.653Z,19.66
2014-10-15T10:06:43.483Z,19.62
2014-10-15T10:08:52.112Z,19.65
2014-10-15T10:09:56.816Z,19.77
2014-10-15T10:11:01.802Z,19.85
2014-10-15T10:12:06.493Z,19.88
2014-10-15T10:13:11.510Z,19.79
2014-10-15T10:14:16.200Z,19.68
2014-10-15T10:15:21.202Z,19.48
2014-10-15T10:16:25.907Z,19.94
2014-10-15T10:17:30.597Z,20.4
2014-10-15T10:18:35.303Z,20.94
2014-10-15T10:19:40.289Z,21.02
2014-10-15T10:20:44.993Z,20.98
2014-10-15T10:21:49.684Z,20.94
2014-10-15T10:22:54.388Z,21.02
2014-10-15T10:23:59.077Z,20.44
2014-10-15T10:25:04.065Z,20.37
2014-10-15T10:26:09.067Z,20.52
2014-10-15T10:27:13.771Z,20.55
2014-10-15T10:28:18.758Z,20.7
2014-10-15T10:29:23.463Z,20.94
2014-10-15T10:30:28.153Z,20.54
2014-10-15T10:31:32.858Z,20.65
2014-10-15T10:32:36.877Z,20.49
2014-10-15T10:33:41.566Z,20.61
2014-10-15T10:34:46.551Z,20.71
2014-10-15T10:35:51.553Z,20.8
2014-10-15T10:36:56.541Z,20.8
2014-10-15T10:38:01.246Z,20.78
2014-10-15T10:39:05.951Z,20.81
2014-10-15T10:40:10.656Z,20.78
2014-10-15T10:41:15.346Z,21.24
2014-10-15T10:42:20.051Z,21.37
2014-10-15T10:43:25.053Z,21.52
2014-10-15T10:44:29.742Z,21.82
2014-10-15T10:45:34.447Z,21.63
2014-10-15T10:46:39.153Z,21.43
2014-10-15T10:47:43.858Z,20.96
2014-10-15T10:48:48.563Z,21
2014-10-15T10:50:07.454Z,21.17
2014-10-15T10:51:12.161Z,20.9
2014-10-15T10:52:17.163Z,21.21
2014-10-15T10:53:21.867Z,21.57
2014-10-15T10:54:26.573Z,21.62
2014-10-15T10:55:31.261Z,21.56
2014-10-15T10:56:35.968Z,21.96
2014-10-15T10:57:40.658Z,22.24
2014-10-15T10:58:45.363Z,22.71
2014-10-15T10:59:50.053Z,22.61
2014-10-15T11:00:54.758Z,22.22
2014-10-15T11:01:59.463Z,22.36
2014-10-15T11:03:04.168Z,22.44
2014-10-15T11:04:09.154Z,22.28
2014-10-15T11:05:13.859Z,22.62
2014-10-15T11:06:18.847Z,22.61
2014-10-15T11:07:23.552Z,22.64
2014-10-15T11:08:28.241Z,22.5
2014-10-15T11:09:32.947Z,22.42
2014-10-15T11:10:37.652Z,22.24
2014-10-15T11:11:42.341Z,21.77
2014-10-15T11:12:47.046Z,21.86
2014-10-15T11:13:52.033Z,21.8
2014-10-15T11:14:57.019Z,21.93
2014-10-15T11:16:01.724Z,22.38
2014-10-15T11:17:06.429Z,22.51
2014-10-15T11:18:11.120Z,22.8
2014-10-15T11:19:15.824Z,22.84
2014-10-15T11:20:20.514Z,22.7
2014-10-15T11:21:25.220Z,22.78
2014-10-15T11:22:30.206Z,22.98
2014-10-15T11:23:34.912Z,23.03
2014-10-15T11:24:39.616Z,22.81
2014-10-15T11:25:44.306Z,21.88
2014-10-15T11:26:49.026Z,21.84
2014-10-15T11:27:54.028Z,21.76
2014-10-15T11:28:58.734Z,22.11
2014-10-15T11:30:03.440Z,22.22
2014-10-15T11:31:08.128Z,22.16
2014-10-15T11:32:13.116Z,22.48
2014-10-15T11:33:18.118Z,22.52
2014-10-15T11:34:22.823Z,22.36
2014-10-15T11:35:27.809Z,22.26
2014-10-15T11:36:32.499Z,22.19
2014-10-15T11:37:37.219Z,22.39
2014-10-15T11:38:41.924Z,22.6
2014-10-15T11:39:46.630Z,22.5
2014-10-15T11:40:51.320Z,22.42
2014-10-15T11:41:56.321Z,22.16
2014-10-15T11:43:01.011Z,21.96
2014-10-15T11:44:05.717Z,21.75
2014-10-15T11:45:10.702Z,21.84
2014-10-15T11:46:15.393Z,22.26
2014-10-15T11:47:20.098Z,22.74
2014-10-15T11:48:25.084Z,23.01
2014-10-15T11:49:29.788Z,22.71
2014-10-15T11:50:34.494Z,21.9
2014-10-15T11:51:39.481Z,22.47
2014-10-15T11:52:44.201Z,22.58
2014-10-15T11:53:48.500Z,22.96
2014-10-15T11:54:53.205Z,23.38
2014-10-15T11:55:57.912Z,22.82
2014-10-15T11:57:02.601Z,22.9
2014-10-15T11:58:07.305Z,22.29
2014-10-15T11:59:12.010Z,21.72
2014-10-15T12:00:16.998Z,21.49
2014-10-15T12:01:22.000Z,21.47
2014-10-15T12:02:26.986Z,22.02
2014-10-15T12:03:31.988Z,22.27
2014-10-15T12:04:36.693Z,22.65
2014-10-15T12:05:41.383Z,23.04
2014-10-15T12:06:46.103Z,22.99
2014-10-15T12:07:51.090Z,23.39
2014-10-15T12:08:55.795Z,22.84
2014-10-15T12:10:00.517Z,22.72
2014-10-15T12:11:05.221Z,22.76
2014-10-15T12:12:10.207Z,22.93
2014-10-15T12:13:14.928Z,23.15
2014-10-15T12:14:19.634Z,23.42
2014-10-15T12:15:24.338Z,23.47
2014-10-15T12:16:29.043Z,23.32
2014-10-15T12:17:33.749Z,22.8
2014-10-15T12:18:38.455Z,22.82
2014-10-15T12:19:43.160Z,23.28
2014-10-15T12:20:47.865Z,23.25
2014-10-15T12:21:52.586Z,23.44
2014-10-15T12:22:57.292Z,23.58
2014-10-15T12:24:01.996Z,23.14
2014-10-15T12:25:06.702Z,23.01
2014-10-15T12:26:11.407Z,23.42
2014-10-15T12:27:16.111Z,23.47
2014-10-15T12:28:20.832Z,23.53
2014-10-15T12:29:25.538Z,23.53
2014-10-15T12:30:30.242Z,23.45
2014-10-15T12:31:35.244Z,23.57
2014-10-15T12:32:39.949Z,23
2014-10-15T12:33:44.655Z,22.8
2014-10-15T12:34:49.361Z,22.43
2014-10-15T12:35:54.066Z,22.92
2014-10-15T12:36:59.068Z,23.38
2014-10-15T12:38:03.773Z,23.57
2014-10-15T12:39:08.478Z,23.77
2014-10-15T12:40:13.199Z,23.4
2014-10-15T12:41:17.904Z,23.19
2014-10-15T12:42:22.610Z,23.46
2014-10-15T12:43:27.315Z,23.62
2014-10-15T12:44:32.035Z,23.36
2014-10-15T12:45:36.741Z,23.04
2014-10-15T12:46:41.446Z,23.06
2014-10-15T12:47:46.150Z,23.17
2014-10-15T12:48:50.855Z,23.25
2014-10-15T12:49:55.858Z,22.96
2014-10-15T12:51:00.579Z,23.02
2014-10-15T12:52:05.284Z,23.15
2014-10-15T12:53:09.989Z,23.1
2014-10-15T12:54:14.976Z,22.75
2014-10-15T12:55:19.681Z,22.51
2014-10-15T12:56:24.386Z,22.41
2014-10-15T12:57:29.075Z,22.62
2014-10-15T12:58:33.781Z,22.33
2014-10-15T12:59:38.487Z,22.18
2014-10-15T13:00:43.175Z,22.29
2014-10-15T13:01:47.881Z,22.24
2014-10-15T13:02:52.571Z,21.91
2014-10-15T13:03:57.276Z,22.17
2014-10-15T13:05:01.981Z,21.66
2014-10-15T13:06:06.671Z,21.07
2014-10-15T13:07:11.376Z,21.26
2014-10-15T13:08:16.065Z,20.73
2014-10-15T13:09:20.770Z,20.77
2014-10-15T13:10:25.757Z,21.21
2014-10-15T13:11:30.462Z,21.39
2014-10-15T13:12:35.151Z,21.23
2014-10-15T13:13:39.857Z,21.3
2014-10-15T13:14:44.547Z,21.5
2014-10-15T13:15:49.252Z,21.43
2014-10-15T13:16:54.237Z,21.47
2014-10-15T13:17:58.944Z,20.78
2014-10-15T13:19:03.930Z,20.42
2014-10-15T13:20:08.651Z,20.35
2014-10-15T13:21:13.340Z,20.72
2014-10-15T13:22:18.045Z,20.98
2014-10-15T13:23:22.750Z,20.93
2014-10-15T13:24:27.456Z,20.9
2014-10-15T13:25:32.146Z,20.98
2014-10-15T13:26:36.850Z,20.88
2014-10-15T13:27:41.540Z,21.07
2014-10-15T13:28:46.246Z,21.07
2014-10-15T13:29:50.950Z,21.05
2014-10-15T13:30:55.639Z,21.13
2014-10-15T13:32:00.346Z,20.74
2014-10-15T13:33:05.035Z,20.47
2014-10-15T13:34:09.739Z,20.53
2014-10-15T13:35:14.445Z,20.63
2014-10-15T13:36:19.135Z,20.98
2014-10-15T13:37:23.137Z,21
2014-10-15T13:38:27.842Z,20.94
2014-10-15T13:39:32.531Z,21.03
2014-10-15T13:40:37.237Z,21.15
2014-10-15T13:41:41.942Z,21.1
2014-10-15T13:42:46.647Z,20.98
2014-10-15T13:43:51.336Z,20.85
2014-10-15T13:44:56.057Z,21.11
2014-10-15T13:46:00.747Z,21.02
2014-10-15T13:47:05.453Z,21.04
2014-10-15T13:48:10.141Z,20.94
2014-10-15T13:49:14.847Z,20.77
2014-10-15T13:50:19.537Z,20.68
2014-10-15T13:51:24.242Z,20.51
2014-10-15T13:52:28.947Z,20.86
2014-10-15T13:53:32.949Z,21.18
2014-10-15T13:58:54.273Z,21.32
2014-10-15T13:59:59.056Z,21.64
2014-10-15T14:01:03.760Z,21.39
2014-10-15T14:02:08.449Z,21.64
2014-10-15T14:03:13.451Z,21.54